sensor_id;sensor_type;location;lat;lon;timestamp;temperature;humidity
80412;SHT30;69749;42.684;23.360;2023-08-31T00:00:40;22.90;48.08
80412;SHT30;69749;42.684;23.360;2023-08-31T00:03:06;22.90;47.97
80412;SHT30;69749;42.684;23.360;2023-08-31T00:05:32;22.87;48.15
80412;SHT30;69749;42.684;23.360;2023-08-31T00:07:57;22.87;48.17
80412;SHT30;69749;42.684;23.360;2023-08-31T00:10:23;22.86;47.91
80412;SHT30;69749;42.684;23.360;2023-08-31T00:12:49;22.83;48.08
80412;SHT30;69749;42.684;23.360;2023-08-31T00:15:14;22.83;48.26
80412;SHT30;69749;42.684;23.360;2023-08-31T00:17:40;22.84;48.06
80412;SHT30;69749;42.684;23.360;2023-08-31T00:20:07;22.83;47.98
80412;SHT30;69749;42.684;23.360;2023-08-31T00:22:33;22.84;48.03
80412;SHT30;69749;42.684;23.360;2023-08-31T00:24:58;22.80;48.15
80412;SHT30;69749;42.684;23.360;2023-08-31T00:27:24;22.83;48.27
80412;SHT30;69749;42.684;23.360;2023-08-31T00:29:49;22.83;48.49
80412;SHT30;69749;42.684;23.360;2023-08-31T00:32:16;22.80;48.48
80412;SHT30;69749;42.684;23.360;2023-08-31T00:34:43;22.84;48.35
80412;SHT30;69749;42.684;23.360;2023-08-31T00:37:08;22.80;48.51
80412;SHT30;69749;42.684;23.360;2023-08-31T00:39:34;22.78;48.77
80412;SHT30;69749;42.684;23.360;2023-08-31T00:41:59;22.71;48.52
80412;SHT30;69749;42.684;23.360;2023-08-31T00:44:26;22.64;48.67
80412;SHT30;69749;42.684;23.360;2023-08-31T00:46:51;22.63;48.59
80412;SHT30;69749;42.684;23.360;2023-08-31T00:49:17;22.61;49.08
80412;SHT30;69749;42.684;23.360;2023-08-31T00:51:45;22.61;48.96
80412;SHT30;69749;42.684;23.360;2023-08-31T00:54:15;22.63;48.81
80412;SHT30;69749;42.684;23.360;2023-08-31T00:56:41;22.66;48.64
80412;SHT30;69749;42.684;23.360;2023-08-31T00:59:07;22.63;48.77
80412;SHT30;69749;42.684;23.360;2023-08-31T01:10:12;22.55;49.12
80412;SHT30;69749;42.684;23.360;2023-08-31T01:13:02;22.52;49.11
80412;SHT30;69749;42.684;23.360;2023-08-31T01:15:26;22.52;49.46
80412;SHT30;69749;42.684;23.360;2023-08-31T01:17:57;22.52;49.08
80412;SHT30;69749;42.684;23.360;2023-08-31T01:20:48;22.49;49.29
80412;SHT30;69749;42.684;23.360;2023-08-31T01:23:19;22.43;49.23
80412;SHT30;69749;42.684;23.360;2023-08-31T01:25:45;22.42;49.28
80412;SHT30;69749;42.684;23.360;2023-08-31T01:28:13;22.39;50.46
80412;SHT30;69749;42.684;23.360;2023-08-31T01:30:39;22.16;51.59
80412;SHT30;69749;42.684;23.360;2023-08-31T01:33:04;21.82;52.73
80412;SHT30;69749;42.684;23.360;2023-08-31T01:35:36;21.36;54.02
80412;SHT30;69749;42.684;23.360;2023-08-31T01:38:06;21.10;54.82
80412;SHT30;69749;42.684;23.360;2023-08-31T01:40:35;21.12;54.68
80412;SHT30;69749;42.684;23.360;2023-08-31T01:43:03;21.22;54.34
80412;SHT30;69749;42.684;23.360;2023-08-31T01:45:30;21.29;54.23
80412;SHT30;69749;42.684;23.360;2023-08-31T01:47:56;21.36;54.17
80412;SHT30;69749;42.684;23.360;2023-08-31T01:50:22;21.43;54.11
80412;SHT30;69749;42.684;23.360;2023-08-31T01:52:48;21.50;53.98
80412;SHT30;69749;42.684;23.360;2023-08-31T01:55:13;21.53;53.84
80412;SHT30;69749;42.684;23.360;2023-08-31T01:57:40;21.60;53.84
80412;SHT30;69749;42.684;23.360;2023-08-31T02:00:07;21.60;53.68
80412;SHT30;69749;42.684;23.360;2023-08-31T02:02:33;21.62;53.75
80412;SHT30;69749;42.684;23.360;2023-08-31T02:04:58;21.68;53.46
80412;SHT30;69749;42.684;23.360;2023-08-31T02:07:26;21.57;53.52
80412;SHT30;69749;42.684;23.360;2023-08-31T02:09:52;21.58;53.33
80412;SHT30;69749;42.684;23.360;2023-08-31T02:12:17;21.65;53.37
80412;SHT30;69749;42.684;23.360;2023-08-31T02:14:43;21.62;53.34
80412;SHT30;69749;42.684;23.360;2023-08-31T02:17:08;21.65;53.14
80412;SHT30;69749;42.684;23.360;2023-08-31T02:19:34;21.46;53.74
80412;SHT30;69749;42.684;23.360;2023-08-31T02:21:59;21.51;53.60
80412;SHT30;69749;42.684;23.360;2023-08-31T02:24:25;21.53;53.54
80412;SHT30;69749;42.684;23.360;2023-08-31T02:26:52;21.58;53.50
80412;SHT30;69749;42.684;23.360;2023-08-31T02:29:17;21.57;53.52
80412;SHT30;69749;42.684;23.360;2023-08-31T02:31:42;21.51;53.49
80412;SHT30;69749;42.684;23.360;2023-08-31T02:34:08;21.46;53.46
80412;SHT30;69749;42.684;23.360;2023-08-31T02:36:33;21.36;53.78
80412;SHT30;69749;42.684;23.360;2023-08-31T02:38:59;21.33;53.92
80412;SHT30;69749;42.684;23.360;2023-08-31T02:41:24;21.26;54.27
80412;SHT30;69749;42.684;23.360;2023-08-31T02:43:51;21.22;54.42
80412;SHT30;69749;42.684;23.360;2023-08-31T02:46:19;21.22;54.28
80412;SHT30;69749;42.684;23.360;2023-08-31T02:48:46;21.26;54.37
80412;SHT30;69749;42.684;23.360;2023-08-31T02:51:11;21.26;54.13
80412;SHT30;69749;42.684;23.360;2023-08-31T02:53:37;21.30;54.05
80412;SHT30;69749;42.684;23.360;2023-08-31T02:56:02;21.33;54.10
80412;SHT30;69749;42.684;23.360;2023-08-31T02:58:28;21.36;53.97
80412;SHT30;69749;42.684;23.360;2023-08-31T03:00:53;21.39;53.87
80412;SHT30;69749;42.684;23.360;2023-08-31T03:03:19;21.40;53.80
80412;SHT30;69749;42.684;23.360;2023-08-31T03:05:45;21.47;53.50
80412;SHT30;69749;42.684;23.360;2023-08-31T03:08:10;21.36;53.73
80412;SHT30;69749;42.684;23.360;2023-08-31T03:10:36;21.27;54.05
80412;SHT30;69749;42.684;23.360;2023-08-31T03:13:02;21.30;54.25
80412;SHT30;69749;42.684;23.360;2023-08-31T03:15:28;21.33;54.25
80412;SHT30;69749;42.684;23.360;2023-08-31T03:17:53;21.31;54.43
80412;SHT30;69749;42.684;23.360;2023-08-31T03:20:19;21.27;54.47
80412;SHT30;69749;42.684;23.360;2023-08-31T03:22:45;21.23;54.62
80412;SHT30;69749;42.684;23.360;2023-08-31T03:25:10;21.29;54.65
80412;SHT30;69749;42.684;23.360;2023-08-31T03:27:36;21.29;54.38
80412;SHT30;69749;42.684;23.360;2023-08-31T03:30:02;21.30;54.46
80412;SHT30;69749;42.684;23.360;2023-08-31T03:32:28;21.18;54.90
80412;SHT30;69749;42.684;23.360;2023-08-31T03:34:53;20.78;56.25
80412;SHT30;69749;42.684;23.360;2023-08-31T03:37:19;19.90;58.79
80412;SHT30;69749;42.684;23.360;2023-08-31T03:39:47;20.14;58.08
80412;SHT30;69749;42.684;23.360;2023-08-31T03:42:12;20.25;57.85
80412;SHT30;69749;42.684;23.360;2023-08-31T03:44:38;20.33;57.72
80412;SHT30;69749;42.684;23.360;2023-08-31T03:47:03;20.33;57.67
80412;SHT30;69749;42.684;23.360;2023-08-31T03:49:29;20.35;57.67
80412;SHT30;69749;42.684;23.360;2023-08-31T03:51:57;20.25;57.96
80412;SHT30;69749;42.684;23.360;2023-08-31T03:54:22;20.06;58.80
80412;SHT30;69749;42.684;23.360;2023-08-31T03:56:47;20.13;58.49
80412;SHT30;69749;42.684;23.360;2023-08-31T03:59:13;20.14;58.62
80412;SHT30;69749;42.684;23.360;2023-08-31T04:01:38;20.12;58.67
80412;SHT30;69749;42.684;23.360;2023-08-31T04:04:04;19.86;59.20
80412;SHT30;69749;42.684;23.360;2023-08-31T04:06:30;20.06;58.65
80412;SHT30;69749;42.684;23.360;2023-08-31T04:08:55;19.96;58.73
80412;SHT30;69749;42.684;23.360;2023-08-31T04:11:21;20.06;58.68
80412;SHT30;69749;42.684;23.360;2023-08-31T04:13:47;20.18;58.37
80412;SHT30;69749;42.684;23.360;2023-08-31T04:16:12;20.23;58.19
80412;SHT30;69749;42.684;23.360;2023-08-31T04:18:38;20.30;58.15
80412;SHT30;69749;42.684;23.360;2023-08-31T04:21:03;20.40;58.09
80412;SHT30;69749;42.684;23.360;2023-08-31T04:23:29;20.49;57.87
80412;SHT30;69749;42.684;23.360;2023-08-31T04:25:54;20.62;57.36
80412;SHT30;69749;42.684;23.360;2023-08-31T04:28:21;20.72;57.10
80412;SHT30;69749;42.684;23.360;2023-08-31T04:30:46;20.78;56.69
80412;SHT30;69749;42.684;23.360;2023-08-31T04:33:12;20.76;56.25
80412;SHT30;69749;42.684;23.360;2023-08-31T04:35:38;20.56;56.77
80412;SHT30;69749;42.684;23.360;2023-08-31T04:38:03;20.68;56.64
80412;SHT30;69749;42.684;23.360;2023-08-31T04:40:29;20.73;56.48
80412;SHT30;69749;42.684;23.360;2023-08-31T04:42:54;20.78;55.22
80412;SHT30;69749;42.684;23.360;2023-08-31T04:45:20;20.92;55.32
80412;SHT30;69749;42.684;23.360;2023-08-31T04:47:45;20.98;55.19
80412;SHT30;69749;42.684;23.360;2023-08-31T04:50:11;21.03;55.56
80412;SHT30;69749;42.684;23.360;2023-08-31T04:52:36;21.16;55.16
80412;SHT30;69749;42.684;23.360;2023-08-31T04:55:02;21.23;54.85
80412;SHT30;69749;42.684;23.360;2023-08-31T04:57:33;21.33;54.06
80412;SHT30;69749;42.684;23.360;2023-08-31T04:59:58;21.46;53.65
80412;SHT30;69749;42.684;23.360;2023-08-31T05:02:23;21.55;53.67
80412;SHT30;69749;42.684;23.360;2023-08-31T05:04:49;21.74;53.30
80412;SHT30;69749;42.684;23.360;2023-08-31T05:07:14;21.88;52.84
80412;SHT30;69749;42.684;23.360;2023-08-31T05:09:40;22.11;52.12
80412;SHT30;69749;42.684;23.360;2023-08-31T05:12:05;22.29;51.33
80412;SHT30;69749;42.684;23.360;2023-08-31T05:14:32;22.66;50.85
80412;SHT30;69749;42.684;23.360;2023-08-31T05:17:00;23.08;50.75
80412;SHT30;69749;42.684;23.360;2023-08-31T05:19:25;23.46;50.09
80412;SHT30;69749;42.684;23.360;2023-08-31T05:21:51;23.87;48.32
80412;SHT30;69749;42.684;23.360;2023-08-31T05:24:16;24.33;47.27
80412;SHT30;69749;42.684;23.360;2023-08-31T05:26:41;24.78;46.48
80412;SHT30;69749;42.684;23.360;2023-08-31T05:29:07;25.57;45.60
80412;SHT30;69749;42.684;23.360;2023-08-31T05:31:32;26.56;43.32
80412;SHT30;69749;42.684;23.360;2023-08-31T05:33:58;27.70;40.62
80412;SHT30;69749;42.684;23.360;2023-08-31T05:36:23;28.98;37.98
80412;SHT30;69749;42.684;23.360;2023-08-31T05:38:51;29.90;36.44
80412;SHT30;69749;42.684;23.360;2023-08-31T05:41:16;30.75;34.80
80412;SHT30;69749;42.684;23.360;2023-08-31T05:43:42;31.20;33.63
80412;SHT30;69749;42.684;23.360;2023-08-31T05:46:08;31.59;33.04
80412;SHT30;69749;42.684;23.360;2023-08-31T05:48:34;31.89;32.48
80412;SHT30;69749;42.684;23.360;2023-08-31T05:51:00;32.17;32.25
80412;SHT30;69749;42.684;23.360;2023-08-31T05:53:25;31.82;32.19
80412;SHT30;69749;42.684;23.360;2023-08-31T05:55:51;32.14;32.14
80412;SHT30;69749;42.684;23.360;2023-08-31T05:58:16;32.34;31.62
80412;SHT30;69749;42.684;23.360;2023-08-31T06:00:42;32.01;32.22
80412;SHT30;69749;42.684;23.360;2023-08-31T06:03:07;31.55;32.35
80412;SHT30;69749;42.684;23.360;2023-08-31T06:05:33;31.07;33.71
80412;SHT30;69749;42.684;23.360;2023-08-31T06:07:58;31.30;33.55
80412;SHT30;69749;42.684;23.360;2023-08-31T06:10:24;31.84;32.74
80412;SHT30;69749;42.684;23.360;2023-08-31T06:12:50;31.99;32.22
80412;SHT30;69749;42.684;23.360;2023-08-31T06:15:16;32.68;31.49
80412;SHT30;69749;42.684;23.360;2023-08-31T06:17:42;33.23;30.48
80412;SHT30;69749;42.684;23.360;2023-08-31T06:20:08;33.97;29.30
80412;SHT30;69749;42.684;23.360;2023-08-31T06:22:34;34.49;28.75
80412;SHT30;69749;42.684;23.360;2023-08-31T06:24:59;35.25;27.85
80412;SHT30;69749;42.684;23.360;2023-08-31T06:27:25;35.78;27.31
80412;SHT30;69749;42.684;23.360;2023-08-31T06:29:50;35.91;26.98
80412;SHT30;69749;42.684;23.360;2023-08-31T06:32:16;35.30;27.47
80412;SHT30;69749;42.684;23.360;2023-08-31T06:34:42;35.70;27.23
80412;SHT30;69749;42.684;23.360;2023-08-31T06:37:07;36.36;26.45
80412;SHT30;69749;42.684;23.360;2023-08-31T06:39:33;37.10;25.43
80412;SHT30;69749;42.684;23.360;2023-08-31T06:41:59;37.18;25.58
80412;SHT30;69749;42.684;23.360;2023-08-31T06:44:24;37.85;24.63
80412;SHT30;69749;42.684;23.360;2023-08-31T06:46:50;38.03;24.19
80412;SHT30;69749;42.684;23.360;2023-08-31T06:49:15;38.33;23.26
80412;SHT30;69749;42.684;23.360;2023-08-31T06:51:41;38.39;23.22
80412;SHT30;69749;42.684;23.360;2023-08-31T06:54:06;38.98;22.86
80412;SHT30;69749;42.684;23.360;2023-08-31T06:56:35;39.50;21.48
80412;SHT30;69749;42.684;23.360;2023-08-31T06:59:03;39.96;20.88
80412;SHT30;69749;42.684;23.360;2023-08-31T07:01:29;40.10;21.01
80412;SHT30;69749;42.684;23.360;2023-08-31T07:03:54;40.44;20.80
80412;SHT30;69749;42.684;23.360;2023-08-31T07:06:20;41.21;20.07
80412;SHT30;69749;42.684;23.360;2023-08-31T07:08:45;41.10;20.10
80412;SHT30;69749;42.684;23.360;2023-08-31T07:11:12;41.39;20.00
80412;SHT30;69749;42.684;23.360;2023-08-31T07:13:38;42.05;19.74
80412;SHT30;69749;42.684;23.360;2023-08-31T07:16:03;42.22;19.04
80412;SHT30;69749;42.684;23.360;2023-08-31T07:18:29;42.38;19.16
80412;SHT30;69749;42.684;23.360;2023-08-31T07:20:55;42.73;18.82
80412;SHT30;69749;42.684;23.360;2023-08-31T07:23:20;42.81;18.74
80412;SHT30;69749;42.684;23.360;2023-08-31T07:25:45;43.06;18.84
80412;SHT30;69749;42.684;23.360;2023-08-31T07:28:12;43.10;18.43
80412;SHT30;69749;42.684;23.360;2023-08-31T07:30:37;42.88;18.25
80412;SHT30;69749;42.684;23.360;2023-08-31T07:33:03;43.08;18.43
80412;SHT30;69749;42.684;23.360;2023-08-31T07:35:29;43.35;18.29
80412;SHT30;69749;42.684;23.360;2023-08-31T07:37:55;43.41;18.43
80412;SHT30;69749;42.684;23.360;2023-08-31T07:40:21;43.35;18.41
80412;SHT30;69749;42.684;23.360;2023-08-31T07:42:46;43.52;18.04
80412;SHT30;69749;42.684;23.360;2023-08-31T07:45:11;43.56;17.92
80412;SHT30;69749;42.684;23.360;2023-08-31T07:47:37;43.68;17.87
80412;SHT30;69749;42.684;23.360;2023-08-31T07:50:02;44.19;17.37
80412;SHT30;69749;42.684;23.360;2023-08-31T07:52:28;44.64;17.12
80412;SHT30;69749;42.684;23.360;2023-08-31T07:54:54;44.88;17.01
80412;SHT30;69749;42.684;23.360;2023-08-31T07:57:19;44.71;16.95
80412;SHT30;69749;42.684;23.360;2023-08-31T07:59:45;43.97;18.06
80412;SHT30;69749;42.684;23.360;2023-08-31T08:02:10;43.86;18.05
80412;SHT30;69749;42.684;23.360;2023-08-31T08:04:35;43.48;18.26
80412;SHT30;69749;42.684;23.360;2023-08-31T08:07:01;43.14;18.37
80412;SHT30;69749;42.684;23.360;2023-08-31T08:09:28;42.84;18.50
80412;SHT30;69749;42.684;23.360;2023-08-31T08:11:55;42.07;19.44
80412;SHT30;69749;42.684;23.360;2023-08-31T08:14:20;41.46;19.94
80412;SHT30;69749;42.684;23.360;2023-08-31T08:16:46;41.03;20.49
80412;SHT30;69749;42.684;23.360;2023-08-31T08:19:11;40.28;21.03
80412;SHT30;69749;42.684;23.360;2023-08-31T08:21:36;39.41;21.64
80412;SHT30;69749;42.684;23.360;2023-08-31T08:24:02;38.51;22.04
80412;SHT30;69749;42.684;23.360;2023-08-31T08:26:28;38.06;22.96
80412;SHT30;69749;42.684;23.360;2023-08-31T08:28:53;37.90;23.16
80412;SHT30;69749;42.684;23.360;2023-08-31T08:31:19;37.89;23.69
80412;SHT30;69749;42.684;23.360;2023-08-31T08:33:44;37.60;22.63
80412;SHT30;69749;42.684;23.360;2023-08-31T08:36:09;37.64;22.70
80412;SHT30;69749;42.684;23.360;2023-08-31T08:38:35;37.72;21.69
80412;SHT30;69749;42.684;23.360;2023-08-31T08:41:04;37.66;21.58
80412;SHT30;69749;42.684;23.360;2023-08-31T08:43:31;37.38;21.56
80412;SHT30;69749;42.684;23.360;2023-08-31T08:46:03;36.75;22.30
80412;SHT30;69749;42.684;23.360;2023-08-31T08:48:29;36.62;22.49
80412;SHT30;69749;42.684;23.360;2023-08-31T08:50:55;36.77;22.31
80412;SHT30;69749;42.684;23.360;2023-08-31T08:53:21;37.00;21.48
80412;SHT30;69749;42.684;23.360;2023-08-31T08:55:46;36.72;21.60
80412;SHT30;69749;42.684;23.360;2023-08-31T08:58:12;36.84;21.81
80412;SHT30;69749;42.684;23.360;2023-08-31T09:00:37;36.76;20.11
80412;SHT30;69749;42.684;23.360;2023-08-31T09:03:03;35.91;20.79
80412;SHT30;69749;42.684;23.360;2023-08-31T09:05:31;35.32;21.15
80412;SHT30;69749;42.684;23.360;2023-08-31T09:08:07;35.17;21.64
80412;SHT30;69749;42.684;23.360;2023-08-31T09:10:41;34.41;22.55
80412;SHT30;69749;42.684;23.360;2023-08-31T09:13:11;34.47;22.34
80412;SHT30;69749;42.684;23.360;2023-08-31T09:15:43;33.93;22.75
80412;SHT30;69749;42.684;23.360;2023-08-31T09:18:29;33.67;23.36
80412;SHT30;69749;42.684;23.360;2023-08-31T09:20:56;33.69;23.83
80412;SHT30;69749;42.684;23.360;2023-08-31T09:23:25;33.55;23.30
80412;SHT30;69749;42.684;23.360;2023-08-31T09:25:52;33.90;23.78
80412;SHT30;69749;42.684;23.360;2023-08-31T09:28:26;33.98;23.96
80412;SHT30;69749;42.684;23.360;2023-08-31T09:30:52;33.56;24.16
80412;SHT30;69749;42.684;23.360;2023-08-31T09:33:19;33.41;24.31
80412;SHT30;69749;42.684;23.360;2023-08-31T09:35:55;33.22;24.66
80412;SHT30;69749;42.684;23.360;2023-08-31T09:38:21;33.42;24.69
80412;SHT30;69749;42.684;23.360;2023-08-31T09:40:46;33.50;24.37
80412;SHT30;69749;42.684;23.360;2023-08-31T09:43:17;32.92;25.04
80412;SHT30;69749;42.684;23.360;2023-08-31T09:45:44;32.88;24.88
80412;SHT30;69749;42.684;23.360;2023-08-31T09:48:10;33.19;25.70
80412;SHT30;69749;42.684;23.360;2023-08-31T09:50:37;33.17;24.99
80412;SHT30;69749;42.684;23.360;2023-08-31T09:53:04;33.19;24.88
80412;SHT30;69749;42.684;23.360;2023-08-31T09:55:33;33.31;24.78
80412;SHT30;69749;42.684;23.360;2023-08-31T09:58:00;33.43;24.90
80412;SHT30;69749;42.684;23.360;2023-08-31T10:00:27;33.53;25.14
80412;SHT30;69749;42.684;23.360;2023-08-31T10:03:04;33.04;25.01
80412;SHT30;69749;42.684;23.360;2023-08-31T10:05:30;32.43;25.68
80412;SHT30;69749;42.684;23.360;2023-08-31T10:07:57;32.39;25.33
80412;SHT30;69749;42.684;23.360;2023-08-31T10:10:24;32.51;25.46
80412;SHT30;69749;42.684;23.360;2023-08-31T10:12:50;32.75;24.91
80412;SHT30;69749;42.684;23.360;2023-08-31T10:15:17;32.87;24.51
80412;SHT30;69749;42.684;23.360;2023-08-31T10:17:43;32.70;23.97
80412;SHT30;69749;42.684;23.360;2023-08-31T10:20:10;32.30;24.46
80412;SHT30;69749;42.684;23.360;2023-08-31T10:22:37;32.65;24.16
80412;SHT30;69749;42.684;23.360;2023-08-31T10:25:06;32.50;23.77
80412;SHT30;69749;42.684;23.360;2023-08-31T10:27:39;32.27;24.25
80412;SHT30;69749;42.684;23.360;2023-08-31T10:32:42;31.97;23.56
80412;SHT30;69749;42.684;23.360;2023-08-31T10:35:08;31.86;23.91
80412;SHT30;69749;42.684;23.360;2023-08-31T10:37:34;31.66;23.83
80412;SHT30;69749;42.684;23.360;2023-08-31T10:40:10;31.51;23.95
80412;SHT30;69749;42.684;23.360;2023-08-31T10:42:46;31.44;24.82
80412;SHT30;69749;42.684;23.360;2023-08-31T10:45:13;31.44;25.25
80412;SHT30;69749;42.684;23.360;2023-08-31T10:47:42;31.27;25.21
80412;SHT30;69749;42.684;23.360;2023-08-31T10:50:21;30.96;25.90
80412;SHT30;69749;42.684;23.360;2023-08-31T10:52:47;30.75;26.37
80412;SHT30;69749;42.684;23.360;2023-08-31T10:55:13;30.75;26.87
80412;SHT30;69749;42.684;23.360;2023-08-31T10:57:40;30.89;26.69
80412;SHT30;69749;42.684;23.360;2023-08-31T11:00:07;30.98;26.73
80412;SHT30;69749;42.684;23.360;2023-08-31T11:02:42;30.93;26.71
80412;SHT30;69749;42.684;23.360;2023-08-31T11:05:10;30.93;26.72
80412;SHT30;69749;42.684;23.360;2023-08-31T11:07:37;30.56;27.03
80412;SHT30;69749;42.684;23.360;2023-08-31T11:10:11;30.75;27.84
80412;SHT30;69749;42.684;23.360;2023-08-31T11:12:37;30.82;27.62
80412;SHT30;69749;42.684;23.360;2023-08-31T11:15:03;30.83;28.06
80412;SHT30;69749;42.684;23.360;2023-08-31T11:17:29;30.68;28.06
80412;SHT30;69749;42.684;23.360;2023-08-31T11:19:57;30.65;28.36
80412;SHT30;69749;42.684;23.360;2023-08-31T11:22:23;30.66;28.08
80412;SHT30;69749;42.684;23.360;2023-08-31T11:24:49;30.51;28.49
80412;SHT30;69749;42.684;23.360;2023-08-31T11:27:19;30.58;28.50
80412;SHT30;69749;42.684;23.360;2023-08-31T11:29:44;30.56;28.58
80412;SHT30;69749;42.684;23.360;2023-08-31T11:32:10;30.62;28.38
80412;SHT30;69749;42.684;23.360;2023-08-31T11:34:40;30.70;28.03
80412;SHT30;69749;42.684;23.360;2023-08-31T11:37:07;30.49;28.12
80412;SHT30;69749;42.684;23.360;2023-08-31T11:39:32;30.28;28.45
80412;SHT30;69749;42.684;23.360;2023-08-31T11:41:58;30.09;28.48
80412;SHT30;69749;42.684;23.360;2023-08-31T11:44:24;29.98;28.37
80412;SHT30;69749;42.684;23.360;2023-08-31T11:46:50;29.91;28.74
80412;SHT30;69749;42.684;23.360;2023-08-31T11:49:17;29.92;28.62
80412;SHT30;69749;42.684;23.360;2023-08-31T11:51:44;29.56;30.45
80412;SHT30;69749;42.684;23.360;2023-08-31T11:54:10;29.76;30.73
80412;SHT30;69749;42.684;23.360;2023-08-31T11:56:43;29.91;31.56
80412;SHT30;69749;42.684;23.360;2023-08-31T11:59:15;30.05;31.34
80412;SHT30;69749;42.684;23.360;2023-08-31T12:01:46;30.07;30.46
80412;SHT30;69749;42.684;23.360;2023-08-31T12:04:14;29.96;30.45
80412;SHT30;69749;42.684;23.360;2023-08-31T12:06:40;30.11;30.61
80412;SHT30;69749;42.684;23.360;2023-08-31T12:09:07;30.08;30.54
80412;SHT30;69749;42.684;23.360;2023-08-31T12:11:33;30.21;30.52
80412;SHT30;69749;42.684;23.360;2023-08-31T12:14:04;30.27;30.37
80412;SHT30;69749;42.684;23.360;2023-08-31T12:16:43;30.14;30.31
80412;SHT30;69749;42.684;23.360;2023-08-31T12:19:13;30.25;30.72
80412;SHT30;69749;42.684;23.360;2023-08-31T12:21:39;30.32;30.52
80412;SHT30;69749;42.684;23.360;2023-08-31T12:24:05;30.35;30.10
80412;SHT30;69749;42.684;23.360;2023-08-31T12:26:31;30.18;30.52
80412;SHT30;69749;42.684;23.360;2023-08-31T12:28:57;30.05;29.98
80412;SHT30;69749;42.684;23.360;2023-08-31T12:31:23;29.98;29.63
80412;SHT30;69749;42.684;23.360;2023-08-31T12:33:48;29.91;29.69
80412;SHT30;69749;42.684;23.360;2023-08-31T12:36:14;29.85;29.78
80412;SHT30;69749;42.684;23.360;2023-08-31T12:38:39;29.71;30.78
80412;SHT30;69749;42.684;23.360;2023-08-31T12:41:05;29.67;31.10
80412;SHT30;69749;42.684;23.360;2023-08-31T12:43:30;29.56;31.25
80412;SHT30;69749;42.684;23.360;2023-08-31T12:45:56;29.61;31.19
80412;SHT30;69749;42.684;23.360;2023-08-31T12:48:23;29.57;31.21
80412;SHT30;69749;42.684;23.360;2023-08-31T12:50:49;29.39;31.15
80412;SHT30;69749;42.684;23.360;2023-08-31T12:53:15;29.23;31.56
80412;SHT30;69749;42.684;23.360;2023-08-31T12:55:40;29.18;31.43
80412;SHT30;69749;42.684;23.360;2023-08-31T12:58:06;29.05;31.24
80412;SHT30;69749;42.684;23.360;2023-08-31T13:00:31;28.71;31.57
80412;SHT30;69749;42.684;23.360;2023-08-31T13:02:57;28.74;32.74
80412;SHT30;69749;42.684;23.360;2023-08-31T13:05:22;28.91;32.16
80412;SHT30;69749;42.684;23.360;2023-08-31T13:07:48;29.03;32.22
80412;SHT30;69749;42.684;23.360;2023-08-31T13:10:13;29.03;31.87
80412;SHT30;69749;42.684;23.360;2023-08-31T13:12:38;29.03;31.64
80412;SHT30;69749;42.684;23.360;2023-08-31T13:15:04;29.08;31.09
80412;SHT30;69749;42.684;23.360;2023-08-31T13:17:30;29.01;31.21
80412;SHT30;69749;42.684;23.360;2023-08-31T13:19:56;29.08;31.81
80412;SHT30;69749;42.684;23.360;2023-08-31T13:22:23;29.03;31.71
80412;SHT30;69749;42.684;23.360;2023-08-31T13:24:49;29.05;31.49
80412;SHT30;69749;42.684;23.360;2023-08-31T13:27:15;28.71;31.92
80412;SHT30;69749;42.684;23.360;2023-08-31T13:29:41;28.81;32.12
80412;SHT30;69749;42.684;23.360;2023-08-31T13:32:06;28.87;31.79
80412;SHT30;69749;42.684;23.360;2023-08-31T13:34:33;28.90;31.56
80412;SHT30;69749;42.684;23.360;2023-08-31T13:36:58;28.74;31.51
80412;SHT30;69749;42.684;23.360;2023-08-31T13:39:23;28.54;32.21
80412;SHT30;69749;42.684;23.360;2023-08-31T13:41:50;28.53;32.03
80412;SHT30;69749;42.684;23.360;2023-08-31T13:44:17;28.68;32.36
80412;SHT30;69749;42.684;23.360;2023-08-31T13:46:42;28.88;33.11
80412;SHT30;69749;42.684;23.360;2023-08-31T13:49:07;28.87;33.84
80412;SHT30;69749;42.684;23.360;2023-08-31T13:51:33;28.82;32.86
80412;SHT30;69749;42.684;23.360;2023-08-31T13:53:58;28.72;31.43
80412;SHT30;69749;42.684;23.360;2023-08-31T13:56:24;28.79;31.82
80412;SHT30;69749;42.684;23.360;2023-08-31T13:58:49;28.74;32.14
80412;SHT30;69749;42.684;23.360;2023-08-31T14:01:14;28.72;31.82
80412;SHT30;69749;42.684;23.360;2023-08-31T14:03:40;28.71;31.62
80412;SHT30;69749;42.684;23.360;2023-08-31T14:06:06;28.75;31.39
80412;SHT30;69749;42.684;23.360;2023-08-31T14:08:31;28.76;30.95
80412;SHT30;69749;42.684;23.360;2023-08-31T14:10:57;28.69;30.70
80412;SHT30;69749;42.684;23.360;2023-08-31T14:13:22;28.61;30.79
80412;SHT30;69749;42.684;23.360;2023-08-31T14:15:48;28.65;31.97
80412;SHT30;69749;42.684;23.360;2023-08-31T14:18:14;28.50;30.68
80412;SHT30;69749;42.684;23.360;2023-08-31T14:20:39;28.50;31.32
80412;SHT30;69749;42.684;23.360;2023-08-31T14:23:05;28.54;31.81
80412;SHT30;69749;42.684;23.360;2023-08-31T14:25:37;28.24;31.39
80412;SHT30;69749;42.684;23.360;2023-08-31T14:28:06;28.07;32.71
80412;SHT30;69749;42.684;23.360;2023-08-31T14:30:31;28.12;33.81
80412;SHT30;69749;42.684;23.360;2023-08-31T14:32:57;28.04;35.51
80412;SHT30;69749;42.684;23.360;2023-08-31T14:35:22;27.90;36.21
80412;SHT30;69749;42.684;23.360;2023-08-31T14:37:47;27.65;36.57
80412;SHT30;69749;42.684;23.360;2023-08-31T14:40:13;27.59;36.72
80412;SHT30;69749;42.684;23.360;2023-08-31T14:42:40;27.56;37.23
80412;SHT30;69749;42.684;23.360;2023-08-31T14:45:06;27.70;37.03
80412;SHT30;69749;42.684;23.360;2023-08-31T14:47:31;27.70;38.43
80412;SHT30;69749;42.684;23.360;2023-08-31T14:49:57;27.58;35.19
80412;SHT30;69749;42.684;23.360;2023-08-31T14:52:23;27.56;35.77
80412;SHT30;69749;42.684;23.360;2023-08-31T14:54:48;27.49;34.61
80412;SHT30;69749;42.684;23.360;2023-08-31T14:57:14;27.51;35.40
80412;SHT30;69749;42.684;23.360;2023-08-31T14:59:39;27.46;34.01
80412;SHT30;69749;42.684;23.360;2023-08-31T15:02:05;27.38;34.13
80412;SHT30;69749;42.684;23.360;2023-08-31T15:04:31;27.35;34.25
80412;SHT30;69749;42.684;23.360;2023-08-31T15:06:57;27.30;34.30
80412;SHT30;69749;42.684;23.360;2023-08-31T15:09:23;27.33;33.70
80412;SHT30;69749;42.684;23.360;2023-08-31T15:11:48;27.25;33.23
80412;SHT30;69749;42.684;23.360;2023-08-31T15:14:14;27.25;33.93
80412;SHT30;69749;42.684;23.360;2023-08-31T15:16:39;27.30;32.74
80412;SHT30;69749;42.684;23.360;2023-08-31T15:19:06;27.23;32.96
80412;SHT30;69749;42.684;23.360;2023-08-31T15:21:32;27.04;33.01